sensor_id;sensor_type;location;lat;lon;timestamp;pressure;altitude;pressure_sealevel;temperature
65290;BMP180;51893;59.754;10.110;2023-01-04T00:01:21;102277.60;;;-8.60
65290;BMP180;51893;59.754;10.110;2023-01-04T00:03:48;102275.60;;;-8.62
65290;BMP180;51893;59.754;10.110;2023-01-04T00:06:17;102273.60;;;-8.70
65290;BMP180;51893;59.754;10.110;2023-01-04T00:08:44;102268.20;;;-8.66
65290;BMP180;51893;59.754;10.110;2023-01-04T00:11:16;102258.60;;;-8.60
65290;BMP180;51893;59.754;10.110;2023-01-04T00:13:45;102258.20;;;-8.60
65290;BMP180;51893;59.754;10.110;2023-01-04T00:16:16;102249.40;;;-8.50
65290;BMP180;51893;59.754;10.110;2023-01-04T00:18:44;102243.20;;;-8.50
65290;BMP180;51893;59.754;10.110;2023-01-04T00:21:18;102237.20;;;-8.50
65290;BMP180;51893;59.754;10.110;2023-01-04T00:23:48;102231.60;;;-8.50
65290;BMP180;51893;59.754;10.110;2023-01-04T00:26:22;102226.80;;;-8.50
65290;BMP180;51893;59.754;10.110;2023-01-04T00:28:55;102225.80;;;-8.50
65290;BMP180;51893;59.754;10.110;2023-01-04T00:31:23;102218.60;;;-8.48
65290;BMP180;51893;59.754;10.110;2023-01-04T00:33:56;102219.20;;;-8.40
65290;BMP180;51893;59.754;10.110;2023-01-04T00:36:27;102222.60;;;-8.40
65290;BMP180;51893;59.754;10.110;2023-01-04T00:38:54;102215.60;;;-8.40
65290;BMP180;51893;59.754;10.110;2023-01-04T00:41:49;102202.40;;;-8.40
65290;BMP180;51893;59.754;10.110;2023-01-04T00:44:28;102202.40;;;-8.50
65290;BMP180;51893;59.754;10.110;2023-01-04T00:46:57;102198.00;;;-8.60
65290;BMP180;51893;59.754;10.110;2023-01-04T00:49:28;102195.00;;;-8.50
65290;BMP180;51893;59.754;10.110;2023-01-04T00:51:55;102190.00;;;-8.50
65290;BMP180;51893;59.754;10.110;2023-01-04T00:54:27;102185.00;;;-8.50
65290;BMP180;51893;59.754;10.110;2023-01-04T00:56:54;102171.60;;;-8.50
65290;BMP180;51893;59.754;10.110;2023-01-04T00:59:21;102167.20;;;-8.40
65290;BMP180;51893;59.754;10.110;2023-01-04T01:01:51;102156.80;;;-8.40
65290;BMP180;51893;59.754;10.110;2023-01-04T01:04:23;102157.80;;;-8.34
65290;BMP180;51893;59.754;10.110;2023-01-04T01:06:51;102155.60;;;-8.40
65290;BMP180;51893;59.754;10.110;2023-01-04T01:09:19;102149.00;;;-8.30
65290;BMP180;51893;59.754;10.110;2023-01-04T01:11:49;102153.40;;;-8.36
65290;BMP180;51893;59.754;10.110;2023-01-04T01:14:22;102143.20;;;-8.40
65290;BMP180;51893;59.754;10.110;2023-01-04T01:16:49;102142.60;;;-8.34
65290;BMP180;51893;59.754;10.110;2023-01-04T01:19:27;102140.80;;;-8.30
65290;BMP180;51893;59.754;10.110;2023-01-04T01:21:55;102129.80;;;-8.20
65290;BMP180;51893;59.754;10.110;2023-01-04T01:24:23;102125.40;;;-8.20
65290;BMP180;51893;59.754;10.110;2023-01-04T01:26:51;102122.00;;;-8.20
65290;BMP180;51893;59.754;10.110;2023-01-04T01:29:18;102121.40;;;-8.10
65290;BMP180;51893;59.754;10.110;2023-01-04T01:31:45;102111.60;;;-8.10
65290;BMP180;51893;59.754;10.110;2023-01-04T01:34:12;102109.60;;;-8.08
65290;BMP180;51893;59.754;10.110;2023-01-04T01:36:40;102105.20;;;-8.08
65290;BMP180;51893;59.754;10.110;2023-01-04T01:39:06;102099.60;;;-8.10
65290;BMP180;51893;59.754;10.110;2023-01-04T01:41:34;102099.60;;;-8.10
65290;BMP180;51893;59.754;10.110;2023-01-04T01:47:22;102097.40;;;-8.20
65290;BMP180;51893;59.754;10.110;2023-01-04T01:49:52;102097.40;;;-8.20
65290;BMP180;51893;59.754;10.110;2023-01-04T01:52:30;102097.60;;;-8.20
65290;BMP180;51893;59.754;10.110;2023-01-04T01:55:03;102092.00;;;-8.20
65290;BMP180;51893;59.754;10.110;2023-01-04T01:57:35;102087.60;;;-8.20
65290;BMP180;51893;59.754;10.110;2023-01-04T02:00:09;102070.00;;;-8.20
65290;BMP180;51893;59.754;10.110;2023-01-04T02:03:19;102058.40;;;-8.30
65290;BMP180;51893;59.754;10.110;2023-01-04T02:05:51;102055.00;;;-8.30
65290;BMP180;51893;59.754;10.110;2023-01-04T02:08:22;102046.20;;;-8.28
65290;BMP180;51893;59.754;10.110;2023-01-04T02:10:49;102040.80;;;-8.20
65290;BMP180;51893;59.754;10.110;2023-01-04T02:13:29;102033.60;;;-8.20
65290;BMP180;51893;59.754;10.110;2023-01-04T02:32:00;101990.60;;;-8.10
65290;BMP180;51893;59.754;10.110;2023-01-04T02:37:59;101982.20;;;-8.10
65290;BMP180;51893;59.754;10.110;2023-01-04T02:40:37;101972.00;;;-8.12
65290;BMP180;51893;59.754;10.110;2023-01-04T02:46:32;101973.60;;;-8.10
65290;BMP180;51893;59.754;10.110;2023-01-04T02:49:02;101973.00;;;-8.08
65290;BMP180;51893;59.754;10.110;2023-01-04T02:51:48;101964.20;;;-8.10
65290;BMP180;51893;59.754;10.110;2023-01-04T02:54:21;101952.00;;;-8.14
65290;BMP180;51893;59.754;10.110;2023-01-04T02:57:06;101947.60;;;-8.10
65290;BMP180;51893;59.754;10.110;2023-01-04T03:00:17;101938.20;;;-8.16
65290;BMP180;51893;59.754;10.110;2023-01-04T03:03:22;101924.40;;;-8.20
65290;BMP180;51893;59.754;10.110;2023-01-04T03:06:26;101909.60;;;-8.20
65290;BMP180;51893;59.754;10.110;2023-01-04T03:09:26;101912.60;;;-8.20
65290;BMP180;51893;59.754;10.110;2023-01-04T03:12:14;101911.00;;;-8.20
65290;BMP180;51893;59.754;10.110;2023-01-04T03:15:29;101911.20;;;-8.20
65290;BMP180;51893;59.754;10.110;2023-01-04T03:18:07;101906.00;;;-8.20
65290;BMP180;51893;59.754;10.110;2023-01-04T03:20:35;101905.40;;;-8.20
65290;BMP180;51893;59.754;10.110;2023-01-04T03:23:08;101892.00;;;-8.20
65290;BMP180;51893;59.754;10.110;2023-01-04T03:26:38;101883.80;;;-8.20
65290;BMP180;51893;59.754;10.110;2023-01-04T03:29:49;101876.20;;;-8.20
65290;BMP180;51893;59.754;10.110;2023-01-04T03:32:55;101871.60;;;-8.20
65290;BMP180;51893;59.754;10.110;2023-01-04T03:36:16;101859.00;;;-8.20
65290;BMP180;51893;59.754;10.110;2023-01-04T03:42:45;101848.00;;;-8.10
65290;BMP180;51893;59.754;10.110;2023-01-04T03:45:47;101837.80;;;-8.10
65290;BMP180;51893;59.754;10.110;2023-01-04T03:48:49;101837.80;;;-8.10
65290;BMP180;51893;59.754;10.110;2023-01-04T03:51:25;101832.20;;;-8.10
65290;BMP180;51893;59.754;10.110;2023-01-04T03:53:57;101817.00;;;-8.10
65290;BMP180;51893;59.754;10.110;2023-01-04T03:56:28;101818.00;;;-8.10
65290;BMP180;51893;59.754;10.110;2023-01-04T03:58:59;101808.20;;;-8.04
65290;BMP180;51893;59.754;10.110;2023-01-04T04:01:27;101802.00;;;-8.08
65290;BMP180;51893;59.754;10.110;2023-01-04T04:03:55;101783.80;;;-8.00
65290;BMP180;51893;59.754;10.110;2023-01-04T04:06:40;101784.80;;;-8.00
65290;BMP180;51893;59.754;10.110;2023-01-04T04:09:31;101775.40;;;-8.10
65290;BMP180;51893;59.754;10.110;2023-01-04T04:11:57;101761.20;;;-8.10
65290;BMP180;51893;59.754;10.110;2023-01-04T04:14:24;101757.80;;;-8.10
65290;BMP180;51893;59.754;10.110;2023-01-04T04:16:50;101753.20;;;-8.10
65290;BMP180;51893;59.754;10.110;2023-01-04T04:19:17;101746.20;;;-8.10
65290;BMP180;51893;59.754;10.110;2023-01-04T04:21:44;101739.20;;;-8.06
65290;BMP180;51893;59.754;10.110;2023-01-04T04:24:18;101739.80;;;-8.06
65290;BMP180;51893;59.754;10.110;2023-01-04T04:26:44;101739.80;;;-8.00
65290;BMP180;51893;59.754;10.110;2023-01-04T04:29:13;101727.20;;;-8.00
65290;BMP180;51893;59.754;10.110;2023-01-04T04:31:42;101724.60;;;-7.94
65290;BMP180;51893;59.754;10.110;2023-01-04T04:34:11;101715.40;;;-7.90
65290;BMP180;51893;59.754;10.110;2023-01-04T04:36:38;101714.80;;;-7.90
65290;BMP180;51893;59.754;10.110;2023-01-04T04:39:05;101708.80;;;-7.90
65290;BMP180;51893;59.754;10.110;2023-01-04T04:41:35;101698.00;;;-7.94
65290;BMP180;51893;59.754;10.110;2023-01-04T04:44:11;101692.60;;;-7.94
65290;BMP180;51893;59.754;10.110;2023-01-04T04:46:40;101678.80;;;-8.00
65290;BMP180;51893;59.754;10.110;2023-01-04T04:49:10;101676.40;;;-8.00
65290;BMP180;51893;59.754;10.110;2023-01-04T04:51:37;101670.20;;;-8.00
65290;BMP180;51893;59.754;10.110;2023-01-04T04:54:05;101660.60;;;-8.00
65290;BMP180;51893;59.754;10.110;2023-01-04T04:56:36;101657.40;;;-8.00
65290;BMP180;51893;59.754;10.110;2023-01-04T04:59:04;101653.40;;;-8.00
65290;BMP180;51893;59.754;10.110;2023-01-04T05:01:31;101646.00;;;-7.90
65290;BMP180;51893;59.754;10.110;2023-01-04T05:03:58;101643.80;;;-7.90
65290;BMP180;51893;59.754;10.110;2023-01-04T05:06:27;101639.20;;;-7.92
65290;BMP180;51893;59.754;10.110;2023-01-04T05:08:54;101629.00;;;-7.94
65290;BMP180;51893;59.754;10.110;2023-01-04T05:11:22;101626.20;;;-7.90
65290;BMP180;51893;59.754;10.110;2023-01-04T05:14:08;101620.00;;;-7.90
65290;BMP180;51893;59.754;10.110;2023-01-04T05:16:35;101606.20;;;-7.88
65290;BMP180;51893;59.754;10.110;2023-01-04T05:19:02;101608.40;;;-7.80
65290;BMP180;51893;59.754;10.110;2023-01-04T05:21:29;101597.00;;;-7.80
65290;BMP180;51893;59.754;10.110;2023-01-04T05:23:56;101599.80;;;-7.70
65290;BMP180;51893;59.754;10.110;2023-01-04T05:26:23;101592.60;;;-7.70
65290;BMP180;51893;59.754;10.110;2023-01-04T05:28:54;101580.80;;;-7.70
65290;BMP180;51893;59.754;10.110;2023-01-04T05:31:24;101576.60;;;-7.70
65290;BMP180;51893;59.754;10.110;2023-01-04T05:33:53;101566.20;;;-7.72
65290;BMP180;51893;59.754;10.110;2023-01-04T05:36:20;101558.80;;;-7.70
65290;BMP180;51893;59.754;10.110;2023-01-04T05:38:47;101553.40;;;-7.70
65290;BMP180;51893;59.754;10.110;2023-01-04T05:41:14;101549.00;;;-7.70
65290;BMP180;51893;59.754;10.110;2023-01-04T05:44:05;101547.20;;;-7.78
65290;BMP180;51893;59.754;10.110;2023-01-04T05:46:32;101540.00;;;-7.70
65290;BMP180;51893;59.754;10.110;2023-01-04T05:49:00;101533.40;;;-7.70
65290;BMP180;51893;59.754;10.110;2023-01-04T05:51:27;101526.60;;;-7.70
65290;BMP180;51893;59.754;10.110;2023-01-04T05:53:53;101520.00;;;-7.70
65290;BMP180;51893;59.754;10.110;2023-01-04T05:56:23;101515.20;;;-7.70
65290;BMP180;51893;59.754;10.110;2023-01-04T05:58:50;101514.60;;;-7.70
65290;BMP180;51893;59.754;10.110;2023-01-04T06:01:16;101499.00;;;-7.70
65290;BMP180;51893;59.754;10.110;2023-01-04T06:03:43;101486.60;;;-7.70
65290;BMP180;51893;59.754;10.110;2023-01-04T06:06:13;101480.00;;;-7.70
65290;BMP180;51893;59.754;10.110;2023-01-04T06:08:39;101471.40;;;-7.70
65290;BMP180;51893;59.754;10.110;2023-01-04T06:11:06;101470.80;;;-7.70
65290;BMP180;51893;59.754;10.110;2023-01-04T06:13:33;101463.00;;;-7.60
65290;BMP180;51893;59.754;10.110;2023-01-04T06:16:00;101453.40;;;-7.60
65290;BMP180;51893;59.754;10.110;2023-01-04T06:18:29;101450.20;;;-7.60
65290;BMP180;51893;59.754;10.110;2023-01-04T06:20:55;101445.60;;;-7.60
65290;BMP180;51893;59.754;10.110;2023-01-04T06:23:23;101439.40;;;-7.56
65290;BMP180;51893;59.754;10.110;2023-01-04T06:25:51;101429.00;;;-7.50
65290;BMP180;51893;59.754;10.110;2023-01-04T06:28:22;101420.80;;;-7.50
65290;BMP180;51893;59.754;10.110;2023-01-04T06:30:53;101416.40;;;-7.50
65290;BMP180;51893;59.754;10.110;2023-01-04T06:33:19;101411.00;;;-7.40
65290;BMP180;51893;59.754;10.110;2023-01-04T06:35:54;101399.40;;;-7.40
65290;BMP180;51893;59.754;10.110;2023-01-04T06:38:21;101388.60;;;-7.46
65290;BMP180;51893;59.754;10.110;2023-01-04T06:40:51;101387.20;;;-7.50
65290;BMP180;51893;59.754;10.110;2023-01-04T06:43:18;101372.60;;;-7.40
65290;BMP180;51893;59.754;10.110;2023-01-04T06:45:48;101372.00;;;-7.40
65290;BMP180;51893;59.754;10.110;2023-01-04T06:48:15;101362.20;;;-7.40
65290;BMP180;51893;59.754;10.110;2023-01-04T06:50:47;101365.40;;;-7.40
65290;BMP180;51893;59.754;10.110;2023-01-04T06:53:14;101350.60;;;-7.42
65290;BMP180;51893;59.754;10.110;2023-01-04T06:55:43;101345.40;;;-7.40
65290;BMP180;51893;59.754;10.110;2023-01-04T06:58:11;101340.40;;;-7.40
65290;BMP180;51893;59.754;10.110;2023-01-04T07:00:54;101330.40;;;-7.32
65290;BMP180;51893;59.754;10.110;2023-01-04T07:03:24;101316.60;;;-7.40
65290;BMP180;51893;59.754;10.110;2023-01-04T07:05:52;101313.80;;;-7.40
65290;BMP180;51893;59.754;10.110;2023-01-04T07:08:19;101304.20;;;-7.40
65290;BMP180;51893;59.754;10.110;2023-01-04T07:10:45;101293.20;;;-7.30
65290;BMP180;51893;59.754;10.110;2023-01-04T07:13:16;101289.80;;;-7.30
65290;BMP180;51893;59.754;10.110;2023-01-04T07:15:46;101290.20;;;-7.40
65290;BMP180;51893;59.754;10.110;2023-01-04T07:18:14;101279.00;;;-7.40
65290;BMP180;51893;59.754;10.110;2023-01-04T07:20:44;101279.40;;;-7.40
65290;BMP180;51893;59.754;10.110;2023-01-04T07:23:11;101279.60;;;-7.34
65290;BMP180;51893;59.754;10.110;2023-01-04T07:25:38;101269.60;;;-7.30
65290;BMP180;51893;59.754;10.110;2023-01-04T07:28:05;101257.60;;;-7.30
65290;BMP180;51893;59.754;10.110;2023-01-04T07:30:32;101256.60;;;-7.20
65290;BMP180;51893;59.754;10.110;2023-01-04T07:33:00;101256.80;;;-7.10
65290;BMP180;51893;59.754;10.110;2023-01-04T07:35:26;101243.40;;;-7.00
65290;BMP180;51893;59.754;10.110;2023-01-04T07:37:53;101238.40;;;-7.00
65290;BMP180;51893;59.754;10.110;2023-01-04T07:40:26;101227.00;;;-6.90
65290;BMP180;51893;59.754;10.110;2023-01-04T07:43:00;101222.00;;;-6.90
65290;BMP180;51893;59.754;10.110;2023-01-04T07:45:27;101227.40;;;-6.90
65290;BMP180;51893;59.754;10.110;2023-01-04T07:47:56;101217.40;;;-6.90
65290;BMP180;51893;59.754;10.110;2023-01-04T07:50:23;101209.20;;;-6.90
65290;BMP180;51893;59.754;10.110;2023-01-04T07:52:50;101206.40;;;-6.80
65290;BMP180;51893;59.754;10.110;2023-01-04T07:55:16;101212.80;;;-6.80
65290;BMP180;51893;59.754;10.110;2023-01-04T07:57:43;101209.60;;;-6.80
65290;BMP180;51893;59.754;10.110;2023-01-04T08:00:12;101205.60;;;-6.74
65290;BMP180;51893;59.754;10.110;2023-01-04T08:02:39;101201.20;;;-6.70
65290;BMP180;51893;59.754;10.110;2023-01-04T08:05:06;101186.60;;;-6.80
65290;BMP180;51893;59.754;10.110;2023-01-04T08:07:35;101190.80;;;-6.90
65290;BMP180;51893;59.754;10.110;2023-01-04T08:10:02;101185.60;;;-6.80
65290;BMP180;51893;59.754;10.110;2023-01-04T08:12:29;101178.20;;;-6.88
65290;BMP180;51893;59.754;10.110;2023-01-04T08:14:55;101172.40;;;-6.90
65290;BMP180;51893;59.754;10.110;2023-01-04T08:17:25;101175.40;;;-6.80
65290;BMP180;51893;59.754;10.110;2023-01-04T08:19:52;101157.80;;;-6.70
65290;BMP180;51893;59.754;10.110;2023-01-04T08:22:28;101151.60;;;-6.70
65290;BMP180;51893;59.754;10.110;2023-01-04T08:24:54;101142.60;;;-6.70
65290;BMP180;51893;59.754;10.110;2023-01-04T08:27:37;101143.00;;;-6.70
65290;BMP180;51893;59.754;10.110;2023-01-04T08:30:13;101124.00;;;-6.68
65290;BMP180;51893;59.754;10.110;2023-01-04T08:32:40;101116.60;;;-6.70
65290;BMP180;51893;59.754;10.110;2023-01-04T08:35:07;101110.20;;;-6.60
65290;BMP180;51893;59.754;10.110;2023-01-04T08:37:36;101099.60;;;-6.60
65290;BMP180;51893;59.754;10.110;2023-01-04T08:40:03;101086.80;;;-6.50
65290;BMP180;51893;59.754;10.110;2023-01-04T08:42:29;101081.60;;;-6.40
65290;BMP180;51893;59.754;10.110;2023-01-04T08:44:58;101079.20;;;-6.40
65290;BMP180;51893;59.754;10.110;2023-01-04T08:47:31;101069.20;;;-6.40
65290;BMP180;51893;59.754;10.110;2023-01-04T08:49:59;101072.00;;;-6.40
65290;BMP180;51893;59.754;10.110;2023-01-04T08:52:35;101062.40;;;-6.40
65290;BMP180;51893;59.754;10.110;2023-01-04T08:55:04;101051.60;;;-6.30
65290;BMP180;51893;59.754;10.110;2023-01-04T08:57:39;101049.60;;;-6.30
65290;BMP180;51893;59.754;10.110;2023-01-04T09:00:09;101043.60;;;-6.30
65290;BMP180;51893;59.754;10.110;2023-01-04T09:02:35;101042.60;;;-6.34
65290;BMP180;51893;59.754;10.110;2023-01-04T09:05:03;101027.20;;;-6.40
65290;BMP180;51893;59.754;10.110;2023-01-04T09:07:32;101032.60;;;-6.40
65290;BMP180;51893;59.754;10.110;2023-01-04T09:09:59;101030.00;;;-6.40
65290;BMP180;51893;59.754;10.110;2023-01-04T09:12:26;101020.60;;;-6.40
65290;BMP180;51893;59.754;10.110;2023-01-04T09:14:52;101019.20;;;-6.40
65290;BMP180;51893;59.754;10.110;2023-01-04T09:17:23;101014.00;;;-6.40
65290;BMP180;51893;59.754;10.110;2023-01-04T09:19:51;101007.40;;;-6.50
65290;BMP180;51893;59.754;10.110;2023-01-04T09:22:17;101011.20;;;-6.50
65290;BMP180;51893;59.754;10.110;2023-01-04T09:24:46;101003.00;;;-6.48
65290;BMP180;51893;59.754;10.110;2023-01-04T09:27:15;101008.40;;;-6.50
65290;BMP180;51893;59.754;10.110;2023-01-04T09:29:41;100999.00;;;-6.50
65290;BMP180;51893;59.754;10.110;2023-01-04T09:32:09;100999.40;;;-6.40
65290;BMP180;51893;59.754;10.110;2023-01-04T09:34:44;100988.00;;;-6.30
65290;BMP180;51893;59.754;10.110;2023-01-04T09:37:11;100985.20;;;-6.30
65290;BMP180;51893;59.754;10.110;2023-01-04T09:39:41;100969.40;;;-6.30
65290;BMP180;51893;59.754;10.110;2023-01-04T09:42:33;100961.20;;;-6.30
65290;BMP180;51893;59.754;10.110;2023-01-04T09:45:19;100955.20;;;-6.20
65290;BMP180;51893;59.754;10.110;2023-01-04T09:48:13;100945.60;;;-6.12
65290;BMP180;51893;59.754;10.110;2023-01-04T09:51:01;100930.60;;;-6.20
65290;BMP180;51893;59.754;10.110;2023-01-04T09:53:48;100919.60;;;-6.10
65290;BMP180;51893;59.754;10.110;2023-01-04T09:56:28;100924.00;;;-6.00
65290;BMP180;51893;59.754;10.110;2023-01-04T09:59:00;100917.00;;;-6.00
65290;BMP180;51893;59.754;10.110;2023-01-04T10:01:47;100907.80;;;-6.00
65290;BMP180;51893;59.754;10.110;2023-01-04T10:04:54;100898.60;;;-5.90
65290;BMP180;51893;59.754;10.110;2023-01-04T10:07:30;100899.80;;;-5.90
65290;BMP180;51893;59.754;10.110;2023-01-04T10:09:59;100885.40;;;-5.90
65290;BMP180;51893;59.754;10.110;2023-01-04T10:13:03;100871.20;;;-5.90
65290;BMP180;51893;59.754;10.110;2023-01-04T10:15:48;100864.40;;;-5.84
65290;BMP180;51893;59.754;10.110;2023-01-04T10:18:33;100855.80;;;-5.80
65290;BMP180;51893;59.754;10.110;2023-01-04T10:21:53;100859.20;;;-5.80
65290;BMP180;51893;59.754;10.110;2023-01-04T10:33:22;100836.80;;;-5.80
65290;BMP180;51893;59.754;10.110;2023-01-04T10:35:51;100817.60;;;-5.72
65290;BMP180;51893;59.754;10.110;2023-01-04T10:38:33;100814.00;;;-5.72
65290;BMP180;51893;59.754;10.110;2023-01-04T10:41:10;100814.60;;;-5.70
65290;BMP180;51893;59.754;10.110;2023-01-04T10:43:51;100800.20;;;-5.66
65290;BMP180;51893;59.754;10.110;2023-01-04T10:47:14;100798.80;;;-5.60
65290;BMP180;51893;59.754;10.110;2023-01-04T10:49:57;100796.80;;;-5.62
65290;BMP180;51893;59.754;10.110;2023-01-04T10:52:39;100782.40;;;-5.64
65290;BMP180;51893;59.754;10.110;2023-01-04T10:55:37;100788.40;;;-5.60
65290;BMP180;51893;59.754;10.110;2023-01-04T11:01:14;100795.20;;;-5.50
65290;BMP180;51893;59.754;10.110;2023-01-04T11:04:05;100781.60;;;-5.48
65290;BMP180;51893;59.754;10.110;2023-01-04T11:06:45;100794.60;;;-5.40
65290;BMP180;51893;59.754;10.110;2023-01-04T11:09:31;100786.60;;;-5.40
65290;BMP180;51893;59.754;10.110;2023-01-04T11:12:01;100788.20;;;-5.44
65290;BMP180;51893;59.754;10.110;2023-01-04T11:14:29;100769.80;;;-5.42
65290;BMP180;51893;59.754;10.110;2023-01-04T11:17:08;100767.80;;;-5.40
65290;BMP180;51893;59.754;10.110;2023-01-04T11:19:40;100766.60;;;-5.40
65290;BMP180;51893;59.754;10.110;2023-01-04T11:25:22;100767.60;;;-5.30
65290;BMP180;51893;59.754;10.110;2023-01-04T11:31:12;100751.00;;;-5.20
65290;BMP180;51893;59.754;10.110;2023-01-04T11:34:13;100749.00;;;-5.20
65290;BMP180;51893;59.754;10.110;2023-01-04T11:36:44;100748.00;;;-5.20
65290;BMP180;51893;59.754;10.110;2023-01-04T11:39:25;100741.20;;;-5.20
65290;BMP180;51893;59.754;10.110;2023-01-04T11:42:03;100752.80;;;-5.20
65290;BMP180;51893;59.754;10.110;2023-01-04T11:44:34;100740.20;;;-5.10
65290;BMP180;51893;59.754;10.110;2023-01-04T11:47:32;100740.20;;;-5.12
65290;BMP180;51893;59.754;10.110;2023-01-04T11:50:00;100745.20;;;-5.12
65290;BMP180;51893;59.754;10.110;2023-01-04T11:52:35;100737.00;;;-5.10
65290;BMP180;51893;59.754;10.110;2023-01-04T11:55:29;100743.60;;;-5.10
65290;BMP180;51893;59.754;10.110;2023-01-04T11:58:17;100745.60;;;-5.10
65290;BMP180;51893;59.754;10.110;2023-01-04T12:00:54;100737.80;;;-5.10
65290;BMP180;51893;59.754;10.110;2023-01-04T12:03:31;100752.40;;;-5.00
65290;BMP180;51893;59.754;10.110;2023-01-04T12:06:34;100759.80;;;-5.00
65290;BMP180;51893;59.754;10.110;2023-01-04T12:09:02;100750.60;;;-4.98
65290;BMP180;51893;59.754;10.110;2023-01-04T12:11:35;100741.60;;;-4.90
65290;BMP180;51893;59.754;10.110;2023-01-04T12:16:55;100731.20;;;-4.80
65290;BMP180;51893;59.754;10.110;2023-01-04T12:19:25;100721.00;;;-4.76
65290;BMP180;51893;59.754;10.110;2023-01-04T12:21:57;100719.00;;;-4.70
65290;BMP180;51893;59.754;10.110;2023-01-04T12:24:30;100710.20;;;-4.70
65290;BMP180;51893;59.754;10.110;2023-01-04T12:27:00;100700.00;;;-4.70
65290;BMP180;51893;59.754;10.110;2023-01-04T12:29:59;100695.20;;;-4.60
65290;BMP180;51893;59.754;10.110;2023-01-04T12:34:58;100675.60;;;-4.60
65290;BMP180;51893;59.754;10.110;2023-01-04T12:45:46;100634.60;;;-4.50
65290;BMP180;51893;59.754;10.110;2023-01-04T12:48:36;100632.00;;;-4.50
65290;BMP180;51893;59.754;10.110;2023-01-04T12:51:25;100621.00;;;-4.50
65290;BMP180;51893;59.754;10.110;2023-01-04T12:54:23;100617.00;;;-4.40
65290;BMP180;51893;59.754;10.110;2023-01-04T13:00:13;100603.20;;;-4.30
65290;BMP180;51893;59.754;10.110;2023-01-04T13:02:46;100603.00;;;-4.30
65290;BMP180;51893;59.754;10.110;2023-01-04T13:08:10;100601.60;;;-4.30
65290;BMP180;51893;59.754;10.110;2023-01-04T13:10:51;100598.00;;;-4.30
65290;BMP180;51893;59.754;10.110;2023-01-04T13:13:50;100600.40;;;-4.30
65290;BMP180;51893;59.754;10.110;2023-01-04T13:19:20;100583.00;;;-4.20
65290;BMP180;51893;59.754;10.110;2023-01-04T13:21:52;100586.80;;;-4.20
65290;BMP180;51893;59.754;10.110;2023-01-04T13:24:33;100578.80;;;-4.20
65290;BMP180;51893;59.754;10.110;2023-01-04T13:27:21;100575.80;;;-4.30
65290;BMP180;51893;59.754;10.110;2023-01-04T13:29:50;100559.20;;;-4.30
65290;BMP180;51893;59.754;10.110;2023-01-04T13:32:32;100545.20;;;-4.20
65290;BMP180;51893;59.754;10.110;2023-01-04T13:35:18;100545.20;;;-4.22
65290;BMP180;51893;59.754;10.110;2023-01-04T13:37:47;100550.00;;;-4.20
65290;BMP180;51893;59.754;10.110;2023-01-04T13:40:25;100541.40;;;-4.20
65290;BMP180;51893;59.754;10.110;2023-01-04T13:48:38;100529.40;;;-4.20
65290;BMP180;51893;59.754;10.110;2023-01-04T13:51:22;100531.20;;;-4.12
65290;BMP180;51893;59.754;10.110;2023-01-04T13:53:58;100536.60;;;-4.10
65290;BMP180;51893;59.754;10.110;2023-01-04T13:56:28;100535.00;;;-4.20
65290;BMP180;51893;59.754;10.110;2023-01-04T13:58:56;100537.00;;;-4.20
65290;BMP180;51893;59.754;10.110;2023-01-04T14:01:37;100535.00;;;-4.16
65290;BMP180;51893;59.754;10.110;2023-01-04T14:04:34;100530.60;;;-4.10
65290;BMP180;51893;59.754;10.110;2023-01-04T14:07:00;100526.40;;;-4.10
65290;BMP180;51893;59.754;10.110;2023-01-04T14:09:42;100531.00;;;-4.10
65290;BMP180;51893;59.754;10.110;2023-01-04T14:12:16;100526.80;;;-4.10
65290;BMP180;51893;59.754;10.110;2023-01-04T14:17:49;100511.80;;;-4.10
65290;BMP180;51893;59.754;10.110;2023-01-04T14:20:34;100508.60;;;-4.06
65290;BMP180;51893;59.754;10.110;2023-01-04T14:23:01;100506.40;;;-4.06
65290;BMP180;51893;59.754;10.110;2023-01-04T14:25:40;100501.20;;;-4.02
65290;BMP180;51893;59.754;10.110;2023-01-04T14:36:18;100487.80;;;-3.90
65290;BMP180;51893;59.754;10.110;2023-01-04T14:41:36;100486.40;;;-3.90
65290;BMP180;51893;59.754;10.110;2023-01-04T14:44:21;100486.00;;;-3.90
65290;BMP180;51893;59.754;10.110;2023-01-04T14:46:54;100486.00;;;-3.86
65290;BMP180;51893;59.754;10.110;2023-01-04T14:49:23;100487.20;;;-3.80
65290;BMP180;51893;59.754;10.110;2023-01-04T14:51:57;100475.00;;;-3.80
65290;BMP180;51893;59.754;10.110;2023-01-04T14:54:27;100477.00;;;-3.80
65290;BMP180;51893;59.754;10.110;2023-01-04T14:56:58;100476.40;;;-3.80
65290;BMP180;51893;59.754;10.110;2023-01-04T14:59:26;100474.60;;;-3.80
65290;BMP180;51893;59.754;10.110;2023-01-04T15:01:55;100466.20;;;-3.72
65290;BMP180;51893;59.754;10.110;2023-01-04T15:04:24;100457.60;;;-3.70
65290;BMP180;51893;59.754;10.110;2023-01-04T15:06:58;100462.80;;;-3.70
65290;BMP180;51893;59.754;10.110;2023-01-04T15:09:29;100464.00;;;-3.70
65290;BMP180;51893;59.754;10.110;2023-01-04T15:12:00;100465.80;;;-3.70
65290;BMP180;51893;59.754;10.110;2023-01-04T15:14:28;100455.40;;;-3.68
65290;BMP180;51893;59.754;10.110;2023-01-04T15:17:04;100461.60;;;-3.60
65290;BMP180;51893;59.754;10.110;2023-01-04T15:19:38;100455.40;;;-3.60
65290;BMP180;51893;59.754;10.110;2023-01-04T15:22:06;100451.60;;;-3.60
65290;BMP180;51893;59.754;10.110;2023-01-04T15:24:38;100440.60;;;-3.60
65290;BMP180;51893;59.754;10.110;2023-01-04T15:27:05;100447.80;;;-3.60
65290;BMP180;51893;59.754;10.110;2023-01-04T15:29:35;100437.40;;;-3.60
65290;BMP180;51893;59.754;10.110;2023-01-04T15:32:01;100435.00;;;-3.56
65290;BMP180;51893;59.754;10.110;2023-01-04T15:34:30;100427.80;;;-3.50
65290;BMP180;51893;59.754;10.110;2023-01-04T15:36:59;100428.20;;;-3.50
65290;BMP180;51893;59.754;10.110;2023-01-04T15:39:26;100436.80;;;-3.48
65290;BMP180;51893;59.754;10.110;2023-01-04T15:41:53;100423.20;;;-3.44
65290;BMP180;51893;59.754;10.110;2023-01-04T15:44:44;100425.80;;;-3.40
65290;BMP180;51893;59.754;10.110;2023-01-04T15:47:10;100426.40;;;-3.38
65290;BMP180;51893;59.754;10.110;2023-01-04T15:49:37;100424.20;;;-3.30
65290;BMP180;51893;59.754;10.110;2023-01-04T15:52:04;100416.60;;;-3.30
65290;BMP180;51893;59.754;10.110;2023-01-04T15:54:33;100418.60;;;-3.30